Time;durP1;ratioP1;P1;durP2;ratioP2;P2;SDS_P1;SDS_P2;PMS_P1;PMS_P2;Temp;Humidity;BMP_temperature;BMP_pressure;BME280_temperature;BME280_humidity;BME280_pressure;Samples;Min_cycle;Max_cycle;Signal;HPM_P1;HPM_P2
2022/08/21 00:00:13;;;;;;;;;;;;;;;15.94;46.23;100066.28;5070520;28;19966;-90
2022/08/21 00:02:44;;;;;;;;;;;;;;;15.91;46.37;100064.88;5110738;28;19950;-89
2022/08/21 00:05:11;;;;;;;;;;;;;;;15.88;46.62;100064.59;5118428;28;20381;-91
2022/08/21 00:07:44;;;;;;;;;;;;;;;15.86;46.54;100061.28;5111545;28;19928;-89
2022/08/21 00:10:11;;;;;;;;;;;;;;;15.83;46.56;100068.06;5089449;28;19950;-88
2022/08/21 00:12:39;;;;;;;;;;;;;;;15.78;46.68;100060.66;5112344;28;19942;-90
2022/08/21 00:15:06;;;;;;;;;;;;;;;15.74;46.76;100058.69;5109985;28;19927;-90
2022/08/21 00:17:34;;;;;;;;;;;;;;;15.71;46.95;100061.91;5096782;28;19928;-91
2022/08/21 00:20:02;;;;;;;;;;;;;;;15.67;46.93;100061.56;5095345;28;19936;-89
2022/08/21 00:22:30;;;;;;;;;;;;;;;15.65;47.09;100061.00;5061477;28;19935;-89
2022/08/21 00:24:57;;;;;;;;;;;;;;;15.64;47.17;100053.91;5070727;28;20387;-89
2022/08/21 00:27:25;;;;;;;;;;;;;;;15.60;47.13;100052.78;5105742;28;20443;-90
2022/08/21 00:29:53;;;;;;;;;;;;;;;15.56;47.38;100040.75;5108219;28;19932;-91
2022/08/21 00:32:24;;;;;;;;;;;;;;;15.53;47.43;100046.69;5088087;28;19931;-90
2022/08/21 00:34:51;;;;;;;;;;;;;;;15.49;47.29;100049.06;5111263;28;19927;-91
2022/08/21 00:37:18;;;;;;;;;;;;;;;15.46;47.54;100052.31;5111914;28;19932;-91
2022/08/21 00:39:46;;;;;;;;;;;;;;;15.40;47.64;100056.03;5102266;28;19928;-92
2022/08/21 00:42:14;;;;;;;;;;;;;;;15.37;47.57;100045.66;5121416;28;19942;-90
2022/08/21 00:44:45;;;;;;;;;;;;;;;15.36;47.51;100052.16;5103331;28;19932;-90
2022/08/21 00:47:12;;;;;;;;;;;;;;;15.34;47.63;100048.88;5100258;28;19934;-91
2022/08/21 00:49:39;;;;;;;;;;;;;;;15.28;47.82;100045.25;5096461;28;19932;-90
2022/08/21 00:52:09;;;;;;;;;;;;;;;15.21;47.94;100054.66;5081646;28;19927;-91
2022/08/21 00:54:36;;;;;;;;;;;;;;;15.14;48.08;100049.38;5090535;28;19950;-90
2022/08/21 00:57:19;;;;;;;;;;;;;;;15.06;48.08;100047.91;5095574;28;20034;-88
2022/08/21 00:59:49;;;;;;;;;;;;;;;15.01;48.39;100063.31;5107589;28;20390;-87
2022/08/21 01:02:16;;;;;;;;;;;;;;;14.95;48.52;100055.09;5104473;28;20398;-90
2022/08/21 01:04:43;;;;;;;;;;;;;;;14.91;48.47;100061.25;5109039;28;19934;-89
2022/08/21 01:07:10;;;;;;;;;;;;;;;14.88;48.47;100067.19;5105071;28;20398;-87
2022/08/21 01:09:37;;;;;;;;;;;;;;;14.82;48.63;100057.34;5085631;28;19928;-89
2022/08/21 01:12:04;;;;;;;;;;;;;;;14.77;48.70;100059.97;5085705;28;19935;-89
2022/08/21 01:14:31;;;;;;;;;;;;;;;14.74;48.86;100061.28;5100440;28;19928;-89
2022/08/21 01:16:58;;;;;;;;;;;;;;;14.72;48.87;100058.81;5114491;28;19932;-89
2022/08/21 01:19:25;;;;;;;;;;;;;;;14.69;49.00;100053.88;5120100;28;19973;-89
2022/08/21 01:21:53;;;;;;;;;;;;;;;14.68;49.08;100051.38;5103327;28;19934;-87
2022/08/21 01:24:21;;;;;;;;;;;;;;;14.65;49.18;100049.16;5099118;28;19927;-88
2022/08/21 01:26:48;;;;;;;;;;;;;;;14.62;49.10;100055.91;5116120;28;19960;-89
2022/08/21 01:29:17;;;;;;;;;;;;;;;14.60;49.15;100049.91;5116856;28;20389;-88
2022/08/21 01:31:43;;;;;;;;;;;;;;;14.57;49.28;100049.56;5088057;28;19928;-89
2022/08/21 01:34:10;;;;;;;;;;;;;;;14.54;49.36;100056.31;5097010;28;19945;-89
2022/08/21 01:36:37;;;;;;;;;;;;;;;14.52;49.49;100044.84;5095929;28;19927;-89
2022/08/21 01:39:05;;;;;;;;;;;;;;;14.45;49.51;100044.16;5096783;28;19953;-88
2022/08/21 01:41:32;;;;;;;;;;;;;;;14.46;49.53;100054.78;5116769;28;20343;-88
2022/08/21 01:43:58;;;;;;;;;;;;;;;14.46;49.65;100048.53;5122982;28;20018;-87
2022/08/21 01:46:26;;;;;;;;;;;;;;;14.44;49.76;100053.41;5118461;28;19979;-89
2022/08/21 01:48:53;;;;;;;;;;;;;;;14.42;49.72;100056.34;5114092;28;20313;-88
2022/08/21 01:51:19;;;;;;;;;;;;;;;14.41;49.92;100053.88;5114235;28;19927;-89
2022/08/21 01:53:46;;;;;;;;;;;;;;;14.41;49.97;100051.16;5113897;28;19927;-89
2022/08/21 01:56:14;;;;;;;;;;;;;;;14.38;49.87;100057.91;5095741;28;19942;-89
2022/08/21 01:58:43;;;;;;;;;;;;;;;14.41;49.89;100056.59;5095667;28;19934;-91
2022/08/21 02:01:10;;;;;;;;;;;;;;;14.40;49.83;100050.31;5114261;28;19950;-90
2022/08/21 02:03:39;;;;;;;;;;;;;;;14.40;49.76;100049.50;5095296;28;20443;-89
2022/08/21 02:06:06;;;;;;;;;;;;;;;14.39;49.89;100053.31;5078346;28;20408;-88
2022/08/21 02:08:33;;;;;;;;;;;;;;;14.35;49.94;100046.69;5116888;28;20036;-89
2022/08/21 02:11:01;;;;;;;;;;;;;;;14.30;50.12;100045.56;5097209;28;19931;-88
2022/08/21 02:13:28;;;;;;;;;;;;;;;14.30;50.26;100050.13;5113213;28;19928;-89
2022/08/21 02:15:55;;;;;;;;;;;;;;;14.28;50.21;100053.13;5077737;28;19928;-89
2022/08/21 02:18:22;;;;;;;;;;;;;;;14.28;50.15;100055.84;5097648;28;19927;-89
2022/08/21 02:20:49;;;;;;;;;;;;;;;14.34;50.06;100061.34;5122032;28;19954;-90
2022/08/21 02:23:23;;;;;;;;;;;;;;;14.34;50.22;100061.34;5112882;28;19928;-88
2022/08/21 02:25:54;;;;;;;;;;;;;;;14.33;50.09;100060.53;5114533;28;19927;-90
2022/08/21 02:28:21;;;;;;;;;;;;;;;14.35;49.99;100063.00;5115421;28;20318;-89
2022/08/21 02:30:48;;;;;;;;;;;;;;;14.33;50.17;100057.81;5113709;28;20333;-89
2022/08/21 02:33:15;;;;;;;;;;;;;;;14.31;50.08;100059.94;5077570;28;19927;-89
2022/08/21 02:35:43;;;;;;;;;;;;;;;14.28;50.37;100058.56;5094124;28;19936;-90
2022/08/21 02:38:14;;;;;;;;;;;;;;;14.27;50.17;100051.44;5093981;28;20435;-89
2022/08/21 02:40:42;;;;;;;;;;;;;;;14.26;50.38;100054.44;5112553;28;19927;-89
2022/08/21 02:43:14;;;;;;;;;;;;;;;14.26;50.25;100063.38;5094376;28;19927;-89
2022/08/21 02:45:42;;;;;;;;;;;;;;;14.25;50.31;100059.00;5114613;28;19928;-88
2022/08/21 02:48:10;;;;;;;;;;;;;;;14.25;50.35;100061.72;5094687;28;20363;-90
2022/08/21 02:50:39;;;;;;;;;;;;;;;14.27;50.41;100061.50;5112634;28;20031;-90
2022/08/21 02:53:06;;;;;;;;;;;;;;;14.25;50.46;100063.63;5112438;28;20432;-88
2022/08/21 02:55:35;;;;;;;;;;;;;;;14.28;50.53;100063.13;5112865;28;20397;-89
2022/08/21 02:58:02;;;;;;;;;;;;;;;14.31;50.46;100068.91;5095272;28;20403;-89
2022/08/21 03:00:29;;;;;;;;;;;;;;;14.34;50.45;100070.31;5113351;28;19927;-89
2022/08/21 03:02:56;;;;;;;;;;;;;;;14.35;50.45;100071.13;5116314;28;19928;-90
2022/08/21 03:05:24;;;;;;;;;;;;;;;14.36;50.46;100064.66;5114919;28;19928;-89
2022/08/21 03:07:52;;;;;;;;;;;;;;;14.40;50.29;100060.38;5079483;28;19931;-89
2022/08/21 03:10:19;;;;;;;;;;;;;;;14.47;50.28;100066.47;5096506;28;20324;-89
2022/08/21 03:12:47;;;;;;;;;;;;;;;14.49;50.33;100064.34;5113552;28;19928;-87
2022/08/21 03:15:16;;;;;;;;;;;;;;;14.55;50.11;100066.09;5096809;28;19927;-90
2022/08/21 03:17:44;;;;;;;;;;;;;;;14.62;49.86;100068.69;5096388;28;19934;-89
2022/08/21 03:20:12;;;;;;;;;;;;;;;14.67;49.70;100066.03;5111773;28;19931;-88
2022/08/21 03:22:39;;;;;;;;;;;;;;;14.73;49.65;100067.78;5076589;28;19932;-89
2022/08/21 03:25:06;;;;;;;;;;;;;;;14.82;49.53;100065.47;5111377;28;19935;-89
2022/08/21 03:27:36;;;;;;;;;;;;;;;14.91;49.35;100067.56;5111630;28;19927;-89
2022/08/21 03:30:07;;;;;;;;;;;;;;;14.97;49.05;100075.78;5111366;28;19955;-88
2022/08/21 03:32:34;;;;;;;;;;;;;;;15.00;49.11;100075.28;5111727;28;19963;-90
2022/08/21 03:35:01;;;;;;;;;;;;;;;15.02;49.08;100070.44;5111329;28;19927;-89
2022/08/21 03:37:29;;;;;;;;;;;;;;;15.03;49.08;100069.34;5111531;28;19927;-88
2022/08/21 03:39:56;;;;;;;;;;;;;;;15.03;48.89;100072.88;5093639;28;19950;-90
2022/08/21 03:42:23;;;;;;;;;;;;;;;15.06;48.91;100075.09;5076484;28;19998;-89
2022/08/21 03:44:51;;;;;;;;;;;;;;;15.09;48.96;100076.50;5112027;28;19931;-88
2022/08/21 03:47:31;;;;;;;;;;;;;;;15.13;48.75;100080.38;5094978;28;19940;-88
2022/08/21 03:49:59;;;;;;;;;;;;;;;15.17;48.75;100071.47;5111586;28;20435;-90
2022/08/21 03:52:26;;;;;;;;;;;;;;;15.20;48.54;100072.06;5111152;28;19927;-88
2022/08/21 03:54:53;;;;;;;;;;;;;;;15.23;48.60;100079.72;5110714;28;19934;-90
2022/08/21 03:57:19;;;;;;;;;;;;;;;15.29;48.42;100075.97;5081661;28;20275;-91
2022/08/21 03:59:46;;;;;;;;;;;;;;;15.36;48.28;100073.91;5097150;28;20420;-91
2022/08/21 04:02:14;;;;;;;;;;;;;;;15.44;48.05;100069.94;5095721;28;20379;-90
2022/08/21 04:04:41;;;;;;;;;;;;;;;15.50;47.91;100067.06;5084856;28;19950;-90
2022/08/21 04:07:07;;;;;;;;;;;;;;;15.58;47.75;100069.34;5103360;28;19927;-90
2022/08/21 04:09:35;;;;;;;;;;;;;;;15.63;47.56;100074.03;5082582;28;19928;-92
2022/08/21 04:12:03;;;;;;;;;;;;;;;15.71;47.48;100073.63;5117128;28;19928;-89
2022/08/21 04:14:30;;;;;;;;;;;;;;;15.77;47.29;100069.91;5098682;28;19932;-91
2022/08/21 04:16:58;;;;;;;;;;;;;;;15.83;47.29;100073.50;5108901;28;20343;-92
2022/08/21 04:19:25;;;;;;;;;;;;;;;15.85;47.07;100065.91;5085196;28;19928;-89
2022/08/21 04:21:52;;;;;;;;;;;;;;;15.87;46.99;100066.47;5076230;28;19934;-87
2022/08/21 04:24:20;;;;;;;;;;;;;;;15.90;46.83;100068.69;5114838;28;20034;-90
2022/08/21 04:26:47;;;;;;;;;;;;;;;15.94;46.85;100069.81;5093355;28;19978;-89
2022/08/21 04:29:14;;;;;;;;;;;;;;;15.98;46.61;100068.25;5093696;28;19928;-90
2022/08/21 04:31:43;;;;;;;;;;;;;;;16.04;46.58;100067.22;5098351;28;19992;-87
2022/08/21 04:34:10;;;;;;;;;;;;;;;16.12;46.05;100065.13;5114997;28;19932;-89
2022/08/21 04:36:37;;;;;;;;;;;;;;;16.19;45.99;100065.75;5104291;28;19936;-89
2022/08/21 04:39:04;;;;;;;;;;;;;;;16.27;45.77;100067.19;5114443;28;19982;-90
2022/08/21 04:41:36;;;;;;;;;;;;;;;16.32;45.55;100068.06;5114140;28;19928;-89
2022/08/21 04:44:03;;;;;;;;;;;;;;;16.43;45.31;100071.72;5115305;28;20024;-89
2022/08/21 04:46:30;;;;;;;;;;;;;;;16.54;45.16;100067.22;5116290;28;20579;-91
2022/08/21 04:48:57;;;;;;;;;;;;;;;16.66;45.07;100070.56;5080083;28;20287;-91
2022/08/21 04:51:25;;;;;;;;;;;;;;;16.72;44.93;100080.44;5113064;28;19928;-89
2022/08/21 04:53:57;;;;;;;;;;;;;;;16.80;44.66;100073.72;5101890;28;19928;-89
2022/08/21 04:56:24;;;;;;;;;;;;;;;16.87;44.44;100068.88;5096248;28;19971;-89
2022/08/21 04:58:51;;;;;;;;;;;;;;;16.97;44.24;100084.50;5113093;28;20380;-89
2022/08/21 05:01:19;;;;;;;;;;;;;;;17.07;44.08;100087.31;5112853;28;19928;-89
2022/08/21 05:03:47;;;;;;;;;;;;;;;17.20;43.42;100086.88;5079363;28;20290;-90
2022/08/21 05:06:14;;;;;;;;;;;;;;;17.30;43.21;100073.28;5113855;28;19934;-88
2022/08/21 05:08:42;;;;;;;;;;;;;;;17.41;42.86;100076.91;5096487;28;20358;-89
2022/08/21 05:11:09;;;;;;;;;;;;;;;17.48;42.96;100082.13;5096230;28;19927;-89
2022/08/21 05:13:36;;;;;;;;;;;;;;;17.51;42.46;100068.78;5094853;28;19935;-88
2022/08/21 05:16:03;;;;;;;;;;;;;;;17.52;42.67;100064.97;5075896;28;19928;-89
2022/08/21 05:18:30;;;;;;;;;;;;;;;17.66;42.70;100070.75;5092078;28;19932;-89
2022/08/21 05:20:57;;;;;;;;;;;;;;;17.70;42.10;100073.81;5074499;28;20031;-90
2022/08/21 05:23:24;;;;;;;;;;;;;;;17.66;41.91;100068.03;5101440;28;19961;-88
2022/08/21 05:25:52;;;;;;;;;;;;;;;17.70;41.90;100077.34;5111978;28;20329;-87
2022/08/21 05:28:19;;;;;;;;;;;;;;;17.80;41.98;100075.78;5079498;28;20331;-89
2022/08/21 05:30:46;;;;;;;;;;;;;;;17.89;41.58;100066.81;5103716;28;19928;-89
2022/08/21 05:33:13;;;;;;;;;;;;;;;17.97;41.27;100084.59;5093260;28;19932;-88
2022/08/21 05:35:41;;;;;;;;;;;;;;;18.05;41.20;100080.50;5063667;28;20287;-88
2022/08/21 05:38:08;;;;;;;;;;;;;;;18.15;41.29;100073.19;5100762;28;19949;-89
2022/08/21 05:40:44;;;;;;;;;;;;;;;18.29;40.79;100083.59;5099792;28;20374;-87
2022/08/21 05:43:11;;;;;;;;;;;;;;;18.40;40.74;100082.53;5107700;28;20003;-87
2022/08/21 05:45:38;;;;;;;;;;;;;;;18.45;40.50;100084.47;5104184;28;19948;-90
2022/08/21 05:48:10;;;;;;;;;;;;;;;18.44;40.57;100080.91;5071467;28;19928;-90
2022/08/21 05:50:38;;;;;;;;;;;;;;;18.52;40.60;100083.09;5079717;28;19932;-91
2022/08/21 05:53:05;;;;;;;;;;;;;;;18.63;40.72;100082.03;5091533;28;20336;-89
2022/08/21 05:55:33;;;;;;;;;;;;;;;18.73;40.51;100078.47;5105457;28;20036;-88
2022/08/21 05:58:00;;;;;;;;;;;;;;;18.84;40.59;100084.81;5078085;28;19966;-90
2022/08/21 06:00:29;;;;;;;;;;;;;;;18.92;40.37;100081.53;5075238;28;19928;-90
2022/08/21 06:03:10;;;;;;;;;;;;;;;19.08;40.00;100070.59;5093003;28;20007;-91
2022/08/21 06:05:53;;;;;;;;;;;;;;;19.16;39.66;100072.75;5060728;28;19988;-89
2022/08/21 06:08:20;;;;;;;;;;;;;;;19.21;39.77;100064.53;5057658;28;19970;-91
2022/08/21 06:10:51;;;;;;;;;;;;;;;19.32;39.23;100066.19;5101802;28;19932;-91
2022/08/21 06:13:19;;;;;;;;;;;;;;;19.34;39.12;100066.69;5097255;28;20336;-88
2022/08/21 06:15:49;;;;;;;;;;;;;;;19.52;38.89;100068.03;5068417;28;19927;-91
2022/08/21 06:18:19;;;;;;;;;;;;;;;19.68;38.86;100063.38;5100837;28;19935;-88
2022/08/21 06:20:46;;;;;;;;;;;;;;;19.82;38.11;100064.41;5082192;28;19988;-89
2022/08/21 06:23:13;;;;;;;;;;;;;;;19.95;38.11;100079.41;5080686;28;19935;-88
2022/08/21 06:25:41;;;;;;;;;;;;;;;20.08;37.92;100078.00;5064070;28;19939;-91
2022/08/21 06:28:47;;;;;;;;;;;;;;;20.18;37.88;100069.75;5045375;28;19988;-91
2022/08/21 06:31:21;;;;;;;;;;;;;;;20.13;37.71;100065.09;5084788;28;19989;-86
2022/08/21 06:33:47;;;;;;;;;;;;;;;20.29;37.47;100071.31;5054435;28;20306;-90
2022/08/21 06:36:15;;;;;;;;;;;;;;;20.49;37.20;100067.63;5065457;28;19928;-91
2022/08/21 06:38:42;;;;;;;;;;;;;;;20.71;37.02;100061.75;5054545;28;19997;-90
2022/08/21 06:41:17;;;;;;;;;;;;;;;20.77;36.55;100060.59;5113659;28;19963;-88
2022/08/21 06:43:52;;;;;;;;;;;;;;;20.83;36.05;100057.81;5093169;28;19927;-86
2022/08/21 06:46:19;;;;;;;;;;;;;;;20.88;36.20;100063.25;5091323;28;19936;-87
2022/08/21 06:48:46;;;;;;;;;;;;;;;20.91;36.43;100063.47;5091168;28;19985;-89
2022/08/21 06:51:13;;;;;;;;;;;;;;;21.04;36.40;100053.78;5081110;28;20390;-94
2022/08/21 06:53:41;;;;;;;;;;;;;;;21.12;36.18;100049.59;5089431;28;19984;-86
2022/08/21 06:56:08;;;;;;;;;;;;;;;21.18;36.28;100048.44;5082833;28;19966;-91
2022/08/21 06:58:35;;;;;;;;;;;;;;;21.24;35.98;100055.50;5100552;28;19931;-88
2022/08/21 07:01:05;;;;;;;;;;;;;;;21.39;35.70;100051.81;5091344;28;21458;-90
2022/08/21 07:03:40;;;;;;;;;;;;;;;21.44;35.76;100046.25;4728498;27;10000413;-90
2022/08/21 07:06:11;;;;;;;;;;;;;;;21.47;34.89;100037.47;5062169;27;19927;-89
2022/08/21 07:08:38;;;;;;;;;;;;;;;21.56;35.17;100035.69;5121595;27;19928;-89
2022/08/21 07:11:13;;;;;;;;;;;;;;;21.67;34.33;100030.06;5098619;28;19932;-89
2022/08/21 07:13:40;;;;;;;;;;;;;;;21.74;34.29;100030.53;5061672;28;20362;-87
2022/08/21 07:16:08;;;;;;;;;;;;;;;21.85;34.20;100040.28;5100923;28;20031;-87
2022/08/21 07:18:35;;;;;;;;;;;;;;;21.94;33.61;100037.72;5077576;28;19928;-89
2022/08/21 07:21:04;;;;;;;;;;;;;;;21.93;34.33;100042.41;5110601;28;19950;-93
2022/08/21 07:23:32;;;;;;;;;;;;;;;22.10;34.02;100043.81;5033461;28;19928;-85
2022/08/21 07:26:00;;;;;;;;;;;;;;;22.13;34.10;100044.06;5049249;28;19928;-89
2022/08/21 07:28:28;;;;;;;;;;;;;;;22.12;33.55;100042.41;5042381;28;19933;-90
2022/08/21 07:30:58;;;;;;;;;;;;;;;22.21;33.53;100043.41;5029237;28;19929;-87
2022/08/21 07:33:26;;;;;;;;;;;;;;;22.22;33.03;100035.97;5025229;28;20000;-86
2022/08/21 07:35:53;;;;;;;;;;;;;;;22.43;32.96;100037.31;5028793;28;20399;-89
2022/08/21 07:38:20;;;;;;;;;;;;;;;22.68;32.95;100036.06;5038622;28;19929;-89
2022/08/21 07:40:47;;;;;;;;;;;;;;;22.88;33.07;100023.09;5027332;28;20006;-87
2022/08/21 07:43:16;;;;;;;;;;;;;;;23.07;32.88;100037.66;5012904;28;19929;-88
2022/08/21 07:45:43;;;;;;;;;;;;;;;23.15;32.51;100033.41;5034050;28;20032;-89
2022/08/21 07:48:12;;;;;;;;;;;;;;;23.35;32.26;100038.53;5033260;28;19963;-90
2022/08/21 07:50:39;;;;;;;;;;;;;;;23.47;31.21;100031.69;5054831;28;19999;-90
2022/08/21 07:53:09;;;;;;;;;;;;;;;23.56;30.89;100032.63;5054417;28;20418;-90
2022/08/21 07:55:50;;;;;;;;;;;;;;;23.59;30.84;100026.50;5115028;28;20456;-89
2022/08/21 07:58:31;;;;;;;;;;;;;;;23.69;30.97;100020.75;5113498;28;19996;-90
2022/08/21 08:01:02;;;;;;;;;;;;;;;23.74;30.73;100022.63;5117244;28;19931;-90
2022/08/21 08:03:29;;;;;;;;;;;;;;;23.66;30.01;100015.88;5099397;28;19927;-90
2022/08/21 08:05:56;;;;;;;;;;;;;;;23.63;30.09;100019.25;5065911;28;19934;-89
2022/08/21 08:08:26;;;;;;;;;;;;;;;23.83;29.74;100008.97;5117386;28;19927;-90
2022/08/21 08:10:54;;;;;;;;;;;;;;;23.98;29.59;100014.13;5086205;28;19928;-88
2022/08/21 08:13:21;;;;;;;;;;;;;;;23.93;29.42;100014.25;5102795;28;19932;-90
2022/08/21 08:15:48;;;;;;;;;;;;;;;24.29;29.30;100010.69;5120080;28;19932;-89
2022/08/21 08:18:18;;;;;;;;;;;;;;;24.60;28.91;100017.13;5083045;28;19928;-91
2022/08/21 08:20:46;;;;;;;;;;;;;;;25.00;28.14;100014.47;5082409;28;19931;-90
2022/08/21 08:23:13;;;;;;;;;;;;;;;25.11;27.50;100014.19;5082234;28;20037;-89
2022/08/21 08:25:40;;;;;;;;;;;;;;;25.33;27.02;99994.00;5098140;28;19997;-90
2022/08/21 08:28:08;;;;;;;;;;;;;;;25.51;26.70;100004.78;5098475;28;19934;-90
2022/08/21 08:30:44;;;;;;;;;;;;;;;26.02;26.07;99990.63;5116245;28;20435;-89
2022/08/21 08:33:30;;;;;;;;;;;;;;;26.16;25.91;99991.28;5100895;28;19931;-89
2022/08/21 08:36:00;;;;;;;;;;;;;;;25.98;25.80;99993.25;5117975;28;20019;-90
2022/08/21 08:38:33;;;;;;;;;;;;;;;25.49;26.38;99998.75;5115974;28;20193;-91
2022/08/21 08:41:07;;;;;;;;;;;;;;;25.35;26.98;100000.84;5097323;28;19927;-91
2022/08/21 08:43:34;;;;;;;;;;;;;;;25.70;26.71;100001.78;5097619;28;20195;-90
2022/08/21 08:46:02;;;;;;;;;;;;;;;25.88;26.08;99996.31;5099805;28;19927;-90
2022/08/21 08:48:46;;;;;;;;;;;;;;;26.05;25.67;99995.50;5099133;28;20018;-89
2022/08/21 08:51:22;;;;;;;;;;;;;;;25.97;25.53;99993.56;5079286;28;19951;-91
2022/08/21 08:54:02;;;;;;;;;;;;;;;26.17;25.65;99999.25;5044785;28;19928;-90
2022/08/21 08:56:30;;;;;;;;;;;;;;;26.11;26.01;100005.28;5074928;28;19928;-91
2022/08/21 08:59:00;;;;;;;;;;;;;;;25.98;25.89;100001.53;5043054;28;20018;-90
2022/08/21 09:01:44;;;;;;;;;;;;;;;26.15;25.88;99997.94;5043786;28;20458;-90
2022/08/21 09:04:14;;;;;;;;;;;;;;;26.17;26.22;99998.44;5075290;28;20042;-90
2022/08/21 09:06:50;;;;;;;;;;;;;;;26.21;25.87;99993.91;5076091;28;20560;-90
2022/08/21 09:09:17;;;;;;;;;;;;;;;26.44;25.33;99991.78;5092724;28;19928;-88
2022/08/21 09:11:44;;;;;;;;;;;;;;;26.87;25.31;99998.41;5092812;28;19928;-89
2022/08/21 09:14:17;;;;;;;;;;;;;;;26.84;24.81;99996.28;5092642;28;20033;-91
2022/08/21 09:16:51;;;;;;;;;;;;;;;26.41;25.08;99997.13;5076140;28;19928;-89
2022/08/21 09:19:21;;;;;;;;;;;;;;;26.24;24.86;99996.00;5075884;28;19934;-89
2022/08/21 09:21:53;;;;;;;;;;;;;;;26.04;25.25;99993.88;5098852;28;20049;-90
2022/08/21 09:24:20;;;;;;;;;;;;;;;25.83;25.28;99986.19;5114712;28;19928;-91
2022/08/21 09:26:53;;;;;;;;;;;;;;;25.80;25.69;99994.28;5115625;28;19928;-88
2022/08/21 09:29:20;;;;;;;;;;;;;;;25.69;25.93;99993.78;5080509;28;20344;-89
2022/08/21 09:31:47;;;;;;;;;;;;;;;25.72;26.20;99993.13;5080479;28;19927;-88
2022/08/21 09:34:23;;;;;;;;;;;;;;;25.63;25.97;99995.09;5114192;28;19927;-89
2022/08/21 09:36:50;;;;;;;;;;;;;;;25.65;26.27;99995.56;5114590;28;20014;-90
2022/08/21 09:39:25;;;;;;;;;;;;;;;25.67;26.50;99985.81;5096407;28;20310;-89
2022/08/21 09:41:56;;;;;;;;;;;;;;;25.74;26.64;99983.38;5115259;28;19962;-90
2022/08/21 09:44:24;;;;;;;;;;;;;;;25.84;26.79;99987.00;5079261;28;19928;-90
2022/08/21 09:46:52;;;;;;;;;;;;;;;25.85;27.03;99983.94;5096729;28;20198;-89
2022/08/21 09:49:28;;;;;;;;;;;;;;;25.78;27.16;99988.31;5096805;28;19927;-89
2022/08/21 09:51:55;;;;;;;;;;;;;;;25.66;27.48;99980.63;5114873;28;19928;-90
2022/08/21 09:54:24;;;;;;;;;;;;;;;25.47;27.07;100002.97;5114293;28;19938;-89
2022/08/21 09:59:42;;;;;;;;;;;;;;;25.24;27.88;99988.44;5099081;28;19931;-89
2022/08/21 10:02:20;;;;;;;;;;;;;;;25.11;27.61;99998.41;5102118;28;19927;-89
2022/08/21 10:04:57;;;;;;;;;;;;;;;24.92;27.36;99990.38;5121066;28;19931;-89
2022/08/21 10:07:26;;;;;;;;;;;;;;;24.88;27.75;99997.66;5097316;28;19932;-91
2022/08/21 10:10:07;;;;;;;;;;;;;;;24.82;27.57;99988.69;5095967;28;19927;-89
2022/08/21 10:13:02;;;;;;;;;;;;;;;24.62;28.04;99989.22;5098100;28;20018;-90
2022/08/21 10:15:48;;;;;;;;;;;;;;;24.55;27.46;99984.13;5097009;28;19959;-89
2022/08/21 10:18:25;;;;;;;;;;;;;;;24.56;27.68;99984.94;5079414;28;19934;-91
2022/08/21 10:21:11;;;;;;;;;;;;;;;24.59;27.79;99978.81;5096210;28;20302;-90
2022/08/21 10:23:56;;;;;;;;;;;;;;;24.71;27.67;99983.75;5113613;28;19949;-90
2022/08/21 10:26:45;;;;;;;;;;;;;;;24.69;27.65;99975.78;5112962;28;19928;-90
2022/08/21 10:29:18;;;;;;;;;;;;;;;24.68;27.97;99973.34;5113224;28;20409;-90
2022/08/21 10:32:07;;;;;;;;;;;;;;;24.66;27.78;99968.13;5112429;28;20317;-90
2022/08/21 10:35:00;;;;;;;;;;;;;;;24.69;28.06;99961.16;5090422;28;20013;-89
2022/08/21 10:37:29;;;;;;;;;;;;;;;24.65;27.93;99953.50;5078101;28;20317;-89
2022/08/21 10:40:00;;;;;;;;;;;;;;;24.62;28.37;99950.59;5112076;28;19928;-89
2022/08/21 10:42:41;;;;;;;;;;;;;;;24.54;28.60;99957.69;5077415;28;19932;-89
2022/08/21 10:45:40;;;;;;;;;;;;;;;24.54;28.54;99943.06;5083882;28;19928;-90
2022/08/21 10:48:07;;;;;;;;;;;;;;;24.48;28.36;99933.28;5093496;28;19932;-89
2022/08/21 10:50:54;;;;;;;;;;;;;;;24.50;28.70;99939.31;5092885;28;19928;-90
2022/08/21 10:53:31;;;;;;;;;;;;;;;24.52;28.23;99948.09;5087213;28;20391;-89
2022/08/21 10:56:03;;;;;;;;;;;;;;;24.63;28.11;99957.72;5104489;28;19928;-88
2022/08/21 10:58:31;;;;;;;;;;;;;;;24.72;28.24;99955.03;5090514;28;19934;-87
2022/08/21 11:01:08;;;;;;;;;;;;;;;24.92;27.86;99961.97;5101846;28;20356;-87
2022/08/21 11:03:47;;;;;;;;;;;;;;;25.17;27.86;99954.94;5110926;28;19927;-89
2022/08/21 11:06:16;;;;;;;;;;;;;;;25.23;27.65;99951.72;5088201;28;20476;-86
2022/08/21 11:08:44;;;;;;;;;;;;;;;25.21;27.27;99951.22;5091617;28;19936;-86
2022/08/21 11:11:21;;;;;;;;;;;;;;;25.21;27.26;99970.56;5100876;28;19932;-90
2022/08/21 11:13:51;;;;;;;;;;;;;;;25.14;27.14;99966.59;5067286;28;19935;-89
2022/08/21 11:16:30;;;;;;;;;;;;;;;25.03;27.19;99960.53;5107214;28;19935;-88
2022/08/21 11:19:02;;;;;;;;;;;;;;;25.01;27.25;99957.28;5081906;28;19928;-90
2022/08/21 11:21:32;;;;;;;;;;;;;;;25.04;26.67;99951.13;5093623;28;19998;-90
2022/08/21 11:24:11;;;;;;;;;;;;;;;25.01;27.04;99944.28;5128416;27;20031;-90
2022/08/21 11:26:41;;;;;;;;;;;;;;;25.04;26.88;99945.59;5083939;28;20385;-92
2022/08/21 11:29:10;;;;;;;;;;;;;;;24.93;26.84;99938.72;5030260;28;20270;-91
2022/08/21 11:31:44;;;;;;;;;;;;;;;24.78;26.69;99938.00;5094594;28;19928;-90
2022/08/21 11:34:35;;;;;;;;;;;;;;;24.60;27.01;99931.56;5092618;28;19934;-90
2022/08/21 11:37:16;;;;;;;;;;;;;;;24.52;27.50;99918.53;5072424;28;19928;-89
2022/08/21 11:40:03;;;;;;;;;;;;;;;24.50;27.68;99915.28;5048339;28;19929;-89
2022/08/21 11:42:39;;;;;;;;;;;;;;;24.34;27.55;99916.78;5031504;28;19928;-90
2022/08/21 11:45:17;;;;;;;;;;;;;;;24.22;27.95;99915.38;5049477;28;19936;-88
2022/08/21 11:48:04;;;;;;;;;;;;;;;24.16;28.30;99910.31;5046353;28;19928;-89
2022/08/21 11:50:34;;;;;;;;;;;;;;;24.10;28.51;99917.06;5026708;28;19968;-89
2022/08/21 11:53:13;;;;;;;;;;;;;;;24.06;28.56;99922.41;5005582;28;19936;-91
2022/08/21 11:55:48;;;;;;;;;;;;;;;24.07;28.38;99920.47;5000401;28;19935;-90
2022/08/21 11:58:18;;;;;;;;;;;;;;;24.09;28.46;99921.78;5003630;28;20218;-89
2022/08/21 12:00:49;;;;;;;;;;;;;;;24.12;28.35;99915.63;5017798;28;19929;-91
2022/08/21 12:03:29;;;;;;;;;;;;;;;24.18;28.68;99914.41;5030413;28;20019;-89
2022/08/21 12:05:58;;;;;;;;;;;;;;;24.29;28.44;99919.66;5012797;28;19929;-93
2022/08/21 12:08:32;;;;;;;;;;;;;;;24.36;28.42;99920.03;5029150;28;20437;-90
2022/08/21 12:11:03;;;;;;;;;;;;;;;24.42;27.52;99927.06;5054289;28;20078;-91
2022/08/21 12:13:33;;;;;;;;;;;;;;;24.46;27.34;99930.84;5067154;28;19935;-90
2022/08/21 12:16:10;;;;;;;;;;;;;;;24.56;27.28;99935.28;5065666;28;19928;-89
2022/08/21 12:18:42;;;;;;;;;;;;;;;24.69;27.16;99933.56;5041862;28;19929;-90
2022/08/21 12:21:20;;;;;;;;;;;;;;;24.87;25.72;99935.31;5051223;28;19928;-88
2022/08/21 12:24:09;;;;;;;;;;;;;;;25.00;25.10;99937.13;5078878;28;20382;-90
2022/08/21 12:26:54;;;;;;;;;;;;;;;25.21;24.71;99934.66;5119629;28;20026;-90
2022/08/21 12:29:29;;;;;;;;;;;;;;;25.37;24.11;99924.00;5095599;28;19928;-90
2022/08/21 12:31:57;;;;;;;;;;;;;;;25.66;23.75;99919.81;5106108;28;19928;-90
2022/08/21 12:34:44;;;;;;;;;;;;;;;25.88;23.63;99922.47;5089979;28;19957;-91
2022/08/21 12:37:15;;;;;;;;;;;;;;;26.03;23.45;99923.09;5115081;28;20105;-89
2022/08/21 12:39:49;;;;;;;;;;;;;;;26.26;23.33;99919.03;5115612;28;19977;-89
2022/08/21 12:42:19;;;;;;;;;;;;;;;26.46;23.43;99900.09;5064623;28;20004;-91
2022/08/21 12:44:48;;;;;;;;;;;;;;;26.45;23.71;99909.56;5113049;28;20039;-91
2022/08/21 12:47:23;;;;;;;;;;;;;;;26.43;23.88;99893.28;5095690;28;20386;-90
2022/08/21 12:50:07;;;;;;;;;;;;;;;26.74;24.14;99889.50;5104524;28;19928;-90
2022/08/21 12:53:01;;;;;;;;;;;;;;;26.80;23.62;99888.97;5053277;28;19934;-90
2022/08/21 12:55:29;;;;;;;;;;;;;;;27.78;22.92;99888.13;5012341;28;19939;-91
2022/08/21 12:57:59;;;;;;;;;;;;;;;29.41;21.49;99891.41;5012441;28;19933;-90
2022/08/21 13:00:29;;;;;;;;;;;;;;;30.43;20.66;99883.66;5019664;28;19964;-89